sensor_id;sensor_type;location;lat;lon;timestamp;P1;durP1;ratioP1;P2;durP2;ratioP2
40609;SDS011;26316;55.976;37.140;2023-11-18T00:01:45;19.95;;;12.93;;
40609;SDS011;26316;55.976;37.140;2023-11-18T00:04:10;18.55;;;12.23;;
40609;SDS011;26316;55.976;37.140;2023-11-18T00:06:41;18.70;;;13.15;;
40609;SDS011;26316;55.976;37.140;2023-11-18T00:09:10;17.15;;;12.52;;
40609;SDS011;26316;55.976;37.140;2023-11-18T00:11:38;20.77;;;12.68;;
40609;SDS011;26316;55.976;37.140;2023-11-18T00:14:04;22.48;;;13.45;;
40609;SDS011;26316;55.976;37.140;2023-11-18T00:16:30;23.65;;;14.05;;
40609;SDS011;26316;55.976;37.140;2023-11-18T00:18:56;23.23;;;14.52;;
40609;SDS011;26316;55.976;37.140;2023-11-18T00:21:24;21.08;;;14.70;;
40609;SDS011;26316;55.976;37.140;2023-11-18T00:23:50;23.27;;;15.32;;
40609;SDS011;26316;55.976;37.140;2023-11-18T00:26:16;22.88;;;14.70;;
40609;SDS011;26316;55.976;37.140;2023-11-18T00:28:44;18.50;;;13.15;;
40609;SDS011;26316;55.976;37.140;2023-11-18T00:31:10;18.05;;;12.48;;
40609;SDS011;26316;55.976;37.140;2023-11-18T00:33:36;15.35;;;10.68;;
40609;SDS011;26316;55.976;37.140;2023-11-18T00:36:02;15.63;;;9.48;;
40609;SDS011;26316;55.976;37.140;2023-11-18T00:38:28;12.45;;;9.48;;
40609;SDS011;26316;55.976;37.140;2023-11-18T00:40:54;12.73;;;9.07;;
40609;SDS011;26316;55.976;37.140;2023-11-18T00:43:20;12.73;;;8.73;;
40609;SDS011;26316;55.976;37.140;2023-11-18T00:45:45;13.43;;;8.63;;
40609;SDS011;26316;55.976;37.140;2023-11-18T00:48:12;14.73;;;8.65;;
40609;SDS011;26316;55.976;37.140;2023-11-18T00:50:38;16.42;;;7.97;;
40609;SDS011;26316;55.976;37.140;2023-11-18T00:53:03;11.73;;;7.57;;
40609;SDS011;26316;55.976;37.140;2023-11-18T00:55:30;11.65;;;7.13;;
40609;SDS011;26316;55.976;37.140;2023-11-18T00:57:57;12.40;;;7.78;;
40609;SDS011;26316;55.976;37.140;2023-11-18T01:00:23;12.52;;;8.13;;
40609;SDS011;26316;55.976;37.140;2023-11-18T01:02:51;15.52;;;9.20;;
40609;SDS011;26316;55.976;37.140;2023-11-18T01:05:19;13.50;;;9.23;;
40609;SDS011;26316;55.976;37.140;2023-11-18T01:07:45;14.07;;;9.48;;
40609;SDS011;26316;55.976;37.140;2023-11-18T01:10:11;14.02;;;8.82;;
40609;SDS011;26316;55.976;37.140;2023-11-18T01:12:37;12.95;;;9.50;;
40609;SDS011;26316;55.976;37.140;2023-11-18T01:15:03;18.35;;;9.48;;
40609;SDS011;26316;55.976;37.140;2023-11-18T01:17:29;20.17;;;10.68;;
40609;SDS011;26316;55.976;37.140;2023-11-18T01:19:57;18.10;;;10.85;;
40609;SDS011;26316;55.976;37.140;2023-11-18T01:22:24;20.10;;;10.13;;
40609;SDS011;26316;55.976;37.140;2023-11-18T01:24:50;15.60;;;9.43;;
40609;SDS011;26316;55.976;37.140;2023-11-18T01:27:18;15.75;;;9.95;;
40609;SDS011;26316;55.976;37.140;2023-11-18T01:29:45;13.57;;;10.02;;
40609;SDS011;26316;55.976;37.140;2023-11-18T01:32:12;16.70;;;8.88;;
40609;SDS011;26316;55.976;37.140;2023-11-18T01:34:39;11.30;;;8.88;;
40609;SDS011;26316;55.976;37.140;2023-11-18T01:37:08;13.18;;;9.05;;
40609;SDS011;26316;55.976;37.140;2023-11-18T01:39:34;13.55;;;9.38;;
40609;SDS011;26316;55.976;37.140;2023-11-18T01:42:01;14.00;;;9.02;;
40609;SDS011;26316;55.976;37.140;2023-11-18T01:44:28;15.18;;;10.25;;
40609;SDS011;26316;55.976;37.140;2023-11-18T01:46:57;13.07;;;9.60;;
40609;SDS011;26316;55.976;37.140;2023-11-18T01:49:23;14.73;;;9.73;;
40609;SDS011;26316;55.976;37.140;2023-11-18T01:51:51;14.80;;;8.80;;
40609;SDS011;26316;55.976;37.140;2023-11-18T01:54:18;12.27;;;8.77;;
40609;SDS011;26316;55.976;37.140;2023-11-18T01:56:48;16.38;;;8.77;;
40609;SDS011;26316;55.976;37.140;2023-11-18T01:59:14;14.93;;;8.48;;
40609;SDS011;26316;55.976;37.140;2023-11-18T02:01:47;13.82;;;9.27;;
40609;SDS011;26316;55.976;37.140;2023-11-18T02:04:15;15.25;;;9.65;;
40609;SDS011;26316;55.976;37.140;2023-11-18T02:06:42;17.23;;;9.25;;
40609;SDS011;26316;55.976;37.140;2023-11-18T02:09:08;15.57;;;9.68;;
40609;SDS011;26316;55.976;37.140;2023-11-18T02:11:45;12.48;;;8.25;;
40609;SDS011;26316;55.976;37.140;2023-11-18T02:14:16;14.48;;;8.98;;
40609;SDS011;26316;55.976;37.140;2023-11-18T02:16:43;16.00;;;9.25;;
40609;SDS011;26316;55.976;37.140;2023-11-18T02:19:19;15.48;;;8.43;;
40609;SDS011;26316;55.976;37.140;2023-11-18T02:21:49;14.70;;;8.83;;
40609;SDS011;26316;55.976;37.140;2023-11-18T02:24:26;12.50;;;8.20;;
40609;SDS011;26316;55.976;37.140;2023-11-18T02:26:53;13.57;;;7.95;;
40609;SDS011;26316;55.976;37.140;2023-11-18T02:29:21;13.85;;;8.27;;
40609;SDS011;26316;55.976;37.140;2023-11-18T02:31:47;14.07;;;8.38;;
40609;SDS011;26316;55.976;37.140;2023-11-18T02:34:16;17.73;;;8.00;;
40609;SDS011;26316;55.976;37.140;2023-11-18T02:36:46;15.63;;;8.35;;
40609;SDS011;26316;55.976;37.140;2023-11-18T02:39:20;13.60;;;7.95;;
40609;SDS011;26316;55.976;37.140;2023-11-18T02:41:48;12.02;;;7.80;;
40609;SDS011;26316;55.976;37.140;2023-11-18T02:44:17;12.85;;;8.00;;
40609;SDS011;26316;55.976;37.140;2023-11-18T02:46:45;12.38;;;7.68;;
40609;SDS011;26316;55.976;37.140;2023-11-18T02:49:11;13.93;;;8.20;;
40609;SDS011;26316;55.976;37.140;2023-11-18T02:51:37;13.40;;;8.20;;
40609;SDS011;26316;55.976;37.140;2023-11-18T02:54:07;15.25;;;8.30;;
40609;SDS011;26316;55.976;37.140;2023-11-18T02:56:37;14.48;;;7.88;;
40609;SDS011;26316;55.976;37.140;2023-11-18T02:59:03;14.25;;;8.18;;
40609;SDS011;26316;55.976;37.140;2023-11-18T03:01:34;12.68;;;8.75;;
40609;SDS011;26316;55.976;37.140;2023-11-18T03:04:01;12.30;;;8.00;;
40609;SDS011;26316;55.976;37.140;2023-11-18T03:06:27;15.38;;;8.80;;
40609;SDS011;26316;55.976;37.140;2023-11-18T03:08:53;14.10;;;9.40;;
40609;SDS011;26316;55.976;37.140;2023-11-18T03:11:19;16.67;;;9.13;;
40609;SDS011;26316;55.976;37.140;2023-11-18T03:13:45;15.70;;;9.52;;
40609;SDS011;26316;55.976;37.140;2023-11-18T03:16:14;17.35;;;9.77;;
40609;SDS011;26316;55.976;37.140;2023-11-18T03:18:40;20.33;;;10.38;;
40609;SDS011;26316;55.976;37.140;2023-11-18T03:21:13;17.13;;;10.15;;
40609;SDS011;26316;55.976;37.140;2023-11-18T03:23:40;14.55;;;10.20;;
40609;SDS011;26316;55.976;37.140;2023-11-18T03:26:06;13.57;;;9.07;;
40609;SDS011;26316;55.976;37.140;2023-11-18T03:28:32;19.55;;;10.38;;
40609;SDS011;26316;55.976;37.140;2023-11-18T03:30:58;14.27;;;9.70;;
40609;SDS011;26316;55.976;37.140;2023-11-18T03:33:24;16.13;;;10.07;;
40609;SDS011;26316;55.976;37.140;2023-11-18T03:35:50;19.15;;;10.05;;
40609;SDS011;26316;55.976;37.140;2023-11-18T03:38:15;20.20;;;10.98;;
40609;SDS011;26316;55.976;37.140;2023-11-18T03:40:42;17.73;;;10.50;;
40609;SDS011;26316;55.976;37.140;2023-11-18T03:43:10;16.67;;;10.23;;
40609;SDS011;26316;55.976;37.140;2023-11-18T03:45:40;16.88;;;10.27;;
40609;SDS011;26316;55.976;37.140;2023-11-18T03:48:06;15.38;;;10.40;;
40609;SDS011;26316;55.976;37.140;2023-11-18T03:50:33;13.80;;;9.95;;
40609;SDS011;26316;55.976;37.140;2023-11-18T03:53:00;17.02;;;10.10;;
40609;SDS011;26316;55.976;37.140;2023-11-18T03:55:28;19.58;;;10.02;;
40609;SDS011;26316;55.976;37.140;2023-11-18T03:57:54;15.30;;;10.13;;
40609;SDS011;26316;55.976;37.140;2023-11-18T04:00:22;18.65;;;11.25;;
40609;SDS011;26316;55.976;37.140;2023-11-18T04:02:52;19.90;;;10.40;;
40609;SDS011;26316;55.976;37.140;2023-11-18T04:05:18;16.75;;;10.73;;
40609;SDS011;26316;55.976;37.140;2023-11-18T04:07:44;14.27;;;9.68;;
40609;SDS011;26316;55.976;37.140;2023-11-18T04:10:10;17.45;;;9.52;;
40609;SDS011;26316;55.976;37.140;2023-11-18T04:12:36;14.88;;;10.20;;
40609;SDS011;26316;55.976;37.140;2023-11-18T04:15:03;20.80;;;10.90;;
40609;SDS011;26316;55.976;37.140;2023-11-18T04:17:30;13.60;;;9.57;;
40609;SDS011;26316;55.976;37.140;2023-11-18T04:19:56;13.85;;;9.05;;
40609;SDS011;26316;55.976;37.140;2023-11-18T04:22:22;18.10;;;9.35;;
40609;SDS011;26316;55.976;37.140;2023-11-18T04:24:49;15.73;;;9.90;;
40609;SDS011;26316;55.976;37.140;2023-11-18T04:27:15;17.50;;;9.43;;
40609;SDS011;26316;55.976;37.140;2023-11-18T04:29:41;13.35;;;9.02;;
40609;SDS011;26316;55.976;37.140;2023-11-18T04:32:07;17.33;;;9.50;;
40609;SDS011;26316;55.976;37.140;2023-11-18T04:34:39;17.42;;;9.98;;
40609;SDS011;26316;55.976;37.140;2023-11-18T04:37:06;16.85;;;9.90;;
40609;SDS011;26316;55.976;37.140;2023-11-18T04:39:32;13.75;;;9.15;;
40609;SDS011;26316;55.976;37.140;2023-11-18T04:41:58;12.75;;;9.13;;
40609;SDS011;26316;55.976;37.140;2023-11-18T04:44:23;15.18;;;9.77;;
40609;SDS011;26316;55.976;37.140;2023-11-18T04:46:49;17.55;;;10.93;;
40609;SDS011;26316;55.976;37.140;2023-11-18T04:49:15;17.13;;;10.68;;
40609;SDS011;26316;55.976;37.140;2023-11-18T04:51:41;15.10;;;9.90;;
40609;SDS011;26316;55.976;37.140;2023-11-18T04:54:06;20.63;;;11.15;;
40609;SDS011;26316;55.976;37.140;2023-11-18T04:56:33;16.00;;;9.15;;
40609;SDS011;26316;55.976;37.140;2023-11-18T04:59:01;16.65;;;9.93;;
40609;SDS011;26316;55.976;37.140;2023-11-18T05:01:28;18.38;;;10.25;;
40609;SDS011;26316;55.976;37.140;2023-11-18T05:03:53;18.83;;;11.00;;
40609;SDS011;26316;55.976;37.140;2023-11-18T05:06:19;26.92;;;11.98;;
40609;SDS011;26316;55.976;37.140;2023-11-18T05:08:45;20.67;;;11.10;;
40609;SDS011;26316;55.976;37.140;2023-11-18T05:11:11;21.08;;;11.30;;
40609;SDS011;26316;55.976;37.140;2023-11-18T05:13:38;26.73;;;12.13;;
40609;SDS011;26316;55.976;37.140;2023-11-18T05:16:06;20.13;;;10.65;;
40609;SDS011;26316;55.976;37.140;2023-11-18T05:18:32;20.80;;;11.38;;
40609;SDS011;26316;55.976;37.140;2023-11-18T05:21:01;20.80;;;11.70;;
40609;SDS011;26316;55.976;37.140;2023-11-18T05:23:28;19.15;;;11.30;;
40609;SDS011;26316;55.976;37.140;2023-11-18T05:25:57;15.27;;;10.52;;
40609;SDS011;26316;55.976;37.140;2023-11-18T05:28:26;17.65;;;10.27;;
40609;SDS011;26316;55.976;37.140;2023-11-18T05:30:52;15.85;;;10.27;;
40609;SDS011;26316;55.976;37.140;2023-11-18T05:33:22;20.15;;;11.70;;
40609;SDS011;26316;55.976;37.140;2023-11-18T05:35:47;20.75;;;11.65;;
40609;SDS011;26316;55.976;37.140;2023-11-18T05:38:16;19.83;;;11.07;;
40609;SDS011;26316;55.976;37.140;2023-11-18T05:40:47;21.17;;;10.93;;
40609;SDS011;26316;55.976;37.140;2023-11-18T05:43:26;18.60;;;11.40;;
40609;SDS011;26316;55.976;37.140;2023-11-18T05:45:55;20.20;;;12.20;;
40609;SDS011;26316;55.976;37.140;2023-11-18T05:48:43;22.17;;;12.57;;
40609;SDS011;26316;55.976;37.140;2023-11-18T05:51:09;20.50;;;12.35;;
40609;SDS011;26316;55.976;37.140;2023-11-18T05:53:42;18.90;;;11.98;;
40609;SDS011;26316;55.976;37.140;2023-11-18T05:56:11;27.48;;;18.83;;
40609;SDS011;26316;55.976;37.140;2023-11-18T05:58:37;24.02;;;17.13;;
40609;SDS011;26316;55.976;37.140;2023-11-18T06:01:04;22.23;;;14.60;;
40609;SDS011;26316;55.976;37.140;2023-11-18T06:03:33;24.50;;;15.50;;
40609;SDS011;26316;55.976;37.140;2023-11-18T06:06:06;30.52;;;18.38;;
40609;SDS011;26316;55.976;37.140;2023-11-18T06:08:36;30.80;;;18.88;;
40609;SDS011;26316;55.976;37.140;2023-11-18T06:11:07;33.55;;;19.80;;
40609;SDS011;26316;55.976;37.140;2023-11-18T06:13:43;34.72;;;19.33;;
40609;SDS011;26316;55.976;37.140;2023-11-18T06:16:21;30.63;;;18.08;;
40609;SDS011;26316;55.976;37.140;2023-11-18T06:18:53;26.95;;;16.02;;
40609;SDS011;26316;55.976;37.140;2023-11-18T06:21:20;24.73;;;14.27;;
40609;SDS011;26316;55.976;37.140;2023-11-18T06:23:50;20.65;;;13.07;;
40609;SDS011;26316;55.976;37.140;2023-11-18T06:26:16;24.23;;;14.13;;
40609;SDS011;26316;55.976;37.140;2023-11-18T06:28:45;19.33;;;12.15;;
40609;SDS011;26316;55.976;37.140;2023-11-18T06:31:11;18.90;;;11.57;;
40609;SDS011;26316;55.976;37.140;2023-11-18T06:33:41;20.42;;;11.85;;
40609;SDS011;26316;55.976;37.140;2023-11-18T06:38:39;19.65;;;11.40;;
40609;SDS011;26316;55.976;37.140;2023-11-18T06:41:06;18.52;;;11.60;;
40609;SDS011;26316;55.976;37.140;2023-11-18T06:43:36;22.30;;;12.13;;
40609;SDS011;26316;55.976;37.140;2023-11-18T06:46:21;21.75;;;13.07;;
40609;SDS011;26316;55.976;37.140;2023-11-18T06:48:48;26.85;;;13.70;;
40609;SDS011;26316;55.976;37.140;2023-11-18T06:51:15;25.13;;;13.82;;
40609;SDS011;26316;55.976;37.140;2023-11-18T06:53:41;21.30;;;14.02;;
40609;SDS011;26316;55.976;37.140;2023-11-18T06:56:10;27.13;;;15.75;;
40609;SDS011;26316;55.976;37.140;2023-11-18T06:58:39;27.45;;;14.00;;
40609;SDS011;26316;55.976;37.140;2023-11-18T07:01:05;24.70;;;14.52;;
40609;SDS011;26316;55.976;37.140;2023-11-18T07:03:31;22.60;;;15.05;;
40609;SDS011;26316;55.976;37.140;2023-11-18T07:05:57;22.67;;;15.13;;
40609;SDS011;26316;55.976;37.140;2023-11-18T07:08:23;24.10;;;15.65;;
40609;SDS011;26316;55.976;37.140;2023-11-18T07:10:49;27.30;;;15.95;;
40609;SDS011;26316;55.976;37.140;2023-11-18T07:13:15;29.17;;;16.33;;
40609;SDS011;26316;55.976;37.140;2023-11-18T07:15:41;32.35;;;17.45;;
40609;SDS011;26316;55.976;37.140;2023-11-18T07:18:08;30.50;;;17.38;;
40609;SDS011;26316;55.976;37.140;2023-11-18T07:20:34;29.98;;;18.77;;
40609;SDS011;26316;55.976;37.140;2023-11-18T07:23:00;30.52;;;19.30;;
40609;SDS011;26316;55.976;37.140;2023-11-18T07:25:26;32.92;;;19.85;;
40609;SDS011;26316;55.976;37.140;2023-11-18T07:27:52;32.30;;;19.50;;
40609;SDS011;26316;55.976;37.140;2023-11-18T07:30:18;31.73;;;20.73;;
40609;SDS011;26316;55.976;37.140;2023-11-18T07:32:45;32.60;;;21.50;;
40609;SDS011;26316;55.976;37.140;2023-11-18T07:35:11;32.28;;;19.63;;
40609;SDS011;26316;55.976;37.140;2023-11-18T07:37:37;35.22;;;21.35;;
40609;SDS011;26316;55.976;37.140;2023-11-18T07:40:05;36.67;;;20.38;;
40609;SDS011;26316;55.976;37.140;2023-11-18T07:42:33;32.42;;;19.58;;
40609;SDS011;26316;55.976;37.140;2023-11-18T07:45:01;32.13;;;18.88;;
40609;SDS011;26316;55.976;37.140;2023-11-18T07:47:29;28.92;;;18.27;;
40609;SDS011;26316;55.976;37.140;2023-11-18T07:49:59;28.77;;;16.90;;
40609;SDS011;26316;55.976;37.140;2023-11-18T07:52:26;26.60;;;15.98;;
40609;SDS011;26316;55.976;37.140;2023-11-18T07:54:53;26.58;;;16.15;;
40609;SDS011;26316;55.976;37.140;2023-11-18T07:57:19;24.10;;;15.00;;
40609;SDS011;26316;55.976;37.140;2023-11-18T07:59:45;27.80;;;14.95;;
40609;SDS011;26316;55.976;37.140;2023-11-18T08:02:11;33.20;;;15.18;;
40609;SDS011;26316;55.976;37.140;2023-11-18T08:04:39;34.08;;;16.35;;
40609;SDS011;26316;55.976;37.140;2023-11-18T08:07:06;24.90;;;14.77;;
40609;SDS011;26316;55.976;37.140;2023-11-18T08:09:33;28.15;;;15.50;;
40609;SDS011;26316;55.976;37.140;2023-11-18T08:11:59;23.88;;;13.13;;
40609;SDS011;26316;55.976;37.140;2023-11-18T08:14:25;29.88;;;14.55;;
40609;SDS011;26316;55.976;37.140;2023-11-18T08:16:50;27.02;;;13.27;;
40609;SDS011;26316;55.976;37.140;2023-11-18T08:19:16;30.90;;;14.15;;
40609;SDS011;26316;55.976;37.140;2023-11-18T08:21:42;34.05;;;13.25;;
40609;SDS011;26316;55.976;37.140;2023-11-18T08:24:08;34.97;;;12.82;;
40609;SDS011;26316;55.976;37.140;2023-11-18T08:26:35;44.67;;;14.57;;
40609;SDS011;26316;55.976;37.140;2023-11-18T08:29:01;41.47;;;13.30;;
40609;SDS011;26316;55.976;37.140;2023-11-18T08:31:27;35.28;;;13.73;;
40609;SDS011;26316;55.976;37.140;2023-11-18T08:33:52;46.22;;;16.02;;
40609;SDS011;26316;55.976;37.140;2023-11-18T08:36:20;44.70;;;15.18;;
40609;SDS011;26316;55.976;37.140;2023-11-18T08:38:48;35.83;;;13.75;;
40609;SDS011;26316;55.976;37.140;2023-11-18T08:41:14;39.22;;;12.60;;
40609;SDS011;26316;55.976;37.140;2023-11-18T08:43:40;40.25;;;12.52;;
40609;SDS011;26316;55.976;37.140;2023-11-18T08:46:06;29.63;;;11.93;;
40609;SDS011;26316;55.976;37.140;2023-11-18T08:48:32;27.83;;;11.77;;
40609;SDS011;26316;55.976;37.140;2023-11-18T08:51:03;28.10;;;12.00;;
40609;SDS011;26316;55.976;37.140;2023-11-18T08:53:30;27.17;;;11.18;;
40609;SDS011;26316;55.976;37.140;2023-11-18T08:56:02;22.17;;;10.07;;
40609;SDS011;26316;55.976;37.140;2023-11-18T08:58:30;23.23;;;10.52;;
40609;SDS011;26316;55.976;37.140;2023-11-18T09:00:59;20.17;;;9.57;;
40609;SDS011;26316;55.976;37.140;2023-11-18T09:03:38;19.30;;;9.45;;
40609;SDS011;26316;55.976;37.140;2023-11-18T09:06:08;19.77;;;9.05;;
40609;SDS011;26316;55.976;37.140;2023-11-18T09:08:51;16.60;;;8.38;;
40609;SDS011;26316;55.976;37.140;2023-11-18T09:11:23;21.88;;;9.60;;
40609;SDS011;26316;55.976;37.140;2023-11-18T09:13:52;17.67;;;8.52;;
40609;SDS011;26316;55.976;37.140;2023-11-18T09:16:25;18.65;;;8.45;;
40609;SDS011;26316;55.976;37.140;2023-11-18T09:18:54;26.35;;;10.52;;
40609;SDS011;26316;55.976;37.140;2023-11-18T09:21:21;24.63;;;10.13;;
40609;SDS011;26316;55.976;37.140;2023-11-18T09:23:54;22.45;;;10.27;;
40609;SDS011;26316;55.976;37.140;2023-11-18T09:26:21;24.60;;;9.80;;
40609;SDS011;26316;55.976;37.140;2023-11-18T09:28:47;18.33;;;9.32;;
40609;SDS011;26316;55.976;37.140;2023-11-18T09:31:15;15.90;;;9.43;;
40609;SDS011;26316;55.976;37.140;2023-11-18T09:33:42;19.70;;;9.70;;
40609;SDS011;26316;55.976;37.140;2023-11-18T09:36:17;18.17;;;9.35;;
40609;SDS011;26316;55.976;37.140;2023-11-18T09:38:43;15.23;;;9.63;;
40609;SDS011;26316;55.976;37.140;2023-11-18T09:41:12;19.90;;;9.70;;
40609;SDS011;26316;55.976;37.140;2023-11-18T09:43:38;23.00;;;10.20;;
40609;SDS011;26316;55.976;37.140;2023-11-18T09:46:11;20.08;;;10.30;;
40609;SDS011;26316;55.976;37.140;2023-11-18T09:48:50;20.40;;;9.95;;
40609;SDS011;26316;55.976;37.140;2023-11-18T09:51:25;21.30;;;10.88;;
40609;SDS011;26316;55.976;37.140;2023-11-18T09:54:05;16.85;;;9.15;;
40609;SDS011;26316;55.976;37.140;2023-11-18T09:56:41;16.77;;;8.75;;
40609;SDS011;26316;55.976;37.140;2023-11-18T09:59:16;15.43;;;9.48;;
40609;SDS011;26316;55.976;37.140;2023-11-18T10:01:53;14.05;;;9.25;;
40609;SDS011;26316;55.976;37.140;2023-11-18T10:04:22;16.60;;;9.32;;
40609;SDS011;26316;55.976;37.140;2023-11-18T10:06:53;13.80;;;9.30;;
40609;SDS011;26316;55.976;37.140;2023-11-18T10:09:24;13.63;;;8.05;;
40609;SDS011;26316;55.976;37.140;2023-11-18T10:11:54;15.60;;;8.30;;
40609;SDS011;26316;55.976;37.140;2023-11-18T10:14:31;15.85;;;7.30;;
40609;SDS011;26316;55.976;37.140;2023-11-18T10:16:57;13.45;;;8.38;;
40609;SDS011;26316;55.976;37.140;2023-11-18T10:19:24;14.93;;;7.68;;
40609;SDS011;26316;55.976;37.140;2023-11-18T10:21:51;12.00;;;6.85;;
40609;SDS011;26316;55.976;37.140;2023-11-18T10:24:17;15.60;;;7.47;;
40609;SDS011;26316;55.976;37.140;2023-11-18T10:26:53;12.00;;;7.88;;
40609;SDS011;26316;55.976;37.140;2023-11-18T10:29:23;13.55;;;7.45;;
40609;SDS011;26316;55.976;37.140;2023-11-18T10:31:53;15.50;;;9.15;;
40609;SDS011;26316;55.976;37.140;2023-11-18T10:34:33;13.05;;;8.57;;
40609;SDS011;26316;55.976;37.140;2023-11-18T10:37:00;14.93;;;9.18;;
40609;SDS011;26316;55.976;37.140;2023-11-18T10:39:31;15.02;;;8.30;;
40609;SDS011;26316;55.976;37.140;2023-11-18T10:42:00;13.85;;;7.93;;
40609;SDS011;26316;55.976;37.140;2023-11-18T10:44:26;14.03;;;7.57;;
40609;SDS011;26316;55.976;37.140;2023-11-18T10:46:53;11.15;;;7.68;;
40609;SDS011;26316;55.976;37.140;2023-11-18T10:49:22;13.43;;;7.80;;
40609;SDS011;26316;55.976;37.140;2023-11-18T10:51:49;13.10;;;7.15;;
40609;SDS011;26316;55.976;37.140;2023-11-18T10:54:16;13.02;;;7.50;;
40609;SDS011;26316;55.976;37.140;2023-11-18T10:56:48;11.55;;;6.20;;
40609;SDS011;26316;55.976;37.140;2023-11-18T10:59:15;10.82;;;6.53;;
40609;SDS011;26316;55.976;37.140;2023-11-18T11:01:44;10.30;;;5.97;;
40609;SDS011;26316;55.976;37.140;2023-11-18T11:04:10;12.23;;;6.63;;
40609;SDS011;26316;55.976;37.140;2023-11-18T11:06:44;13.20;;;7.47;;
40609;SDS011;26316;55.976;37.140;2023-11-18T11:09:25;14.13;;;8.15;;
40609;SDS011;26316;55.976;37.140;2023-11-18T11:11:57;10.95;;;6.93;;
40609;SDS011;26316;55.976;37.140;2023-11-18T11:14:32;15.23;;;7.95;;
40609;SDS011;26316;55.976;37.140;2023-11-18T11:17:07;11.38;;;7.80;;
40609;SDS011;26316;55.976;37.140;2023-11-18T11:19:54;10.73;;;7.35;;
40609;SDS011;26316;55.976;37.140;2023-11-18T11:22:46;12.55;;;8.23;;
40609;SDS011;26316;55.976;37.140;2023-11-18T11:25:43;12.75;;;8.65;;
40609;SDS011;26316;55.976;37.140;2023-11-18T11:28:28;11.20;;;7.75;;
40609;SDS011;26316;55.976;37.140;2023-11-18T11:31:16;13.20;;;8.40;;
40609;SDS011;26316;55.976;37.140;2023-11-18T11:36:22;16.33;;;9.63;;
40609;SDS011;26316;55.976;37.140;2023-11-18T11:38:54;16.38;;;9.85;;
40609;SDS011;26316;55.976;37.140;2023-11-18T11:41:21;16.15;;;9.80;;
40609;SDS011;26316;55.976;37.140;2023-11-18T11:43:52;15.68;;;8.88;;
40609;SDS011;26316;55.976;37.140;2023-11-18T11:46:29;13.15;;;8.55;;
40609;SDS011;26316;55.976;37.140;2023-11-18T11:49:00;15.20;;;8.75;;
40609;SDS011;26316;55.976;37.140;2023-11-18T11:51:36;12.25;;;8.98;;
40609;SDS011;26316;55.976;37.140;2023-11-18T11:54:21;15.40;;;8.48;;
40609;SDS011;26316;55.976;37.140;2023-11-18T11:56:51;14.32;;;9.50;;
40609;SDS011;26316;55.976;37.140;2023-11-18T11:59:53;17.17;;;9.82;;
40609;SDS011;26316;55.976;37.140;2023-11-18T12:02:25;14.05;;;8.43;;
40609;SDS011;26316;55.976;37.140;2023-11-18T12:04:57;14.38;;;8.70;;
40609;SDS011;26316;55.976;37.140;2023-11-18T12:07:32;13.55;;;8.65;;
40609;SDS011;26316;55.976;37.140;2023-11-18T12:10:07;12.63;;;8.48;;
40609;SDS011;26316;55.976;37.140;2023-11-18T12:12:38;17.35;;;9.18;;
40609;SDS011;26316;55.976;37.140;2023-11-18T12:15:05;18.77;;;9.00;;
40609;SDS011;26316;55.976;37.140;2023-11-18T12:23:12;15.38;;;9.95;;
40609;SDS011;26316;55.976;37.140;2023-11-18T12:25:44;16.08;;;8.35;;
40609;SDS011;26316;55.976;37.140;2023-11-18T12:28:20;13.07;;;7.38;;
40609;SDS011;26316;55.976;37.140;2023-11-18T12:30:55;15.43;;;6.93;;
40609;SDS011;26316;55.976;37.140;2023-11-18T12:33:24;12.10;;;7.70;;
40609;SDS011;26316;55.976;37.140;2023-11-18T12:36:03;11.27;;;6.25;;
40609;SDS011;26316;55.976;37.140;2023-11-18T12:41:39;12.30;;;6.45;;
40609;SDS011;26316;55.976;37.140;2023-11-18T12:46:50;17.92;;;7.32;;
40609;SDS011;26316;55.976;37.140;2023-11-18T12:49:23;13.93;;;5.90;;
40609;SDS011;26316;55.976;37.140;2023-11-18T12:51:50;15.63;;;6.65;;
40609;SDS011;26316;55.976;37.140;2023-11-18T12:54:17;13.70;;;6.85;;
40609;SDS011;26316;55.976;37.140;2023-11-18T12:56:50;15.13;;;7.70;;
40609;SDS011;26316;55.976;37.140;2023-11-18T12:59:19;14.50;;;7.50;;
40609;SDS011;26316;55.976;37.140;2023-11-18T13:01:52;16.35;;;8.45;;
40609;SDS011;26316;55.976;37.140;2023-11-18T13:04:22;15.65;;;7.78;;
40609;SDS011;26316;55.976;37.140;2023-11-18T13:06:49;14.00;;;8.18;;
40609;SDS011;26316;55.976;37.140;2023-11-18T13:09:19;17.75;;;8.73;;
40609;SDS011;26316;55.976;37.140;2023-11-18T13:11:54;13.45;;;8.13;;
40609;SDS011;26316;55.976;37.140;2023-11-18T13:14:22;14.40;;;7.90;;
40609;SDS011;26316;55.976;37.140;2023-11-18T13:16:51;12.90;;;7.95;;
40609;SDS011;26316;55.976;37.140;2023-11-18T13:19:25;15.00;;;7.47;;
40609;SDS011;26316;55.976;37.140;2023-11-18T13:22:00;12.85;;;7.80;;
40609;SDS011;26316;55.976;37.140;2023-11-18T13:24:29;15.68;;;8.73;;
40609;SDS011;26316;55.976;37.140;2023-11-18T13:26:57;17.35;;;9.88;;
40609;SDS011;26316;55.976;37.140;2023-11-18T13:29:23;20.27;;;12.00;;
40609;SDS011;26316;55.976;37.140;2023-11-18T13:31:50;27.20;;;15.50;;
40609;SDS011;26316;55.976;37.140;2023-11-18T13:34:19;20.10;;;10.07;;
40609;SDS011;26316;55.976;37.140;2023-11-18T13:36:48;15.93;;;9.07;;
40609;SDS011;26316;55.976;37.140;2023-11-18T13:39:18;16.48;;;9.27;;
40609;SDS011;26316;55.976;37.140;2023-11-18T13:41:49;14.43;;;8.50;;
40609;SDS011;26316;55.976;37.140;2023-11-18T13:44:31;13.82;;;7.93;;
40609;SDS011;26316;55.976;37.140;2023-11-18T13:47:01;11.63;;;7.60;;
40609;SDS011;26316;55.976;37.140;2023-11-18T13:49:28;14.98;;;7.13;;
40609;SDS011;26316;55.976;37.140;2023-11-18T13:51:55;12.98;;;6.47;;
40609;SDS011;26316;55.976;37.140;2023-11-18T13:54:21;12.43;;;6.90;;
40609;SDS011;26316;55.976;37.140;2023-11-18T13:56:48;12.35;;;7.05;;
40609;SDS011;26316;55.976;37.140;2023-11-18T13:59:15;12.68;;;7.38;;
40609;SDS011;26316;55.976;37.140;2023-11-18T14:01:41;10.85;;;6.90;;
40609;SDS011;26316;55.976;37.140;2023-11-18T14:04:08;17.38;;;7.95;;
40609;SDS011;26316;55.976;37.140;2023-11-18T14:06:35;14.77;;;8.23;;
40609;SDS011;26316;55.976;37.140;2023-11-18T14:09:02;12.60;;;8.20;;
40609;SDS011;26316;55.976;37.140;2023-11-18T14:11:30;17.98;;;9.43;;
40609;SDS011;26316;55.976;37.140;2023-11-18T14:13:56;15.55;;;8.75;;
40609;SDS011;26316;55.976;37.140;2023-11-18T14:16:23;14.57;;;9.15;;
40609;SDS011;26316;55.976;37.140;2023-11-18T14:18:51;13.38;;;8.35;;
40609;SDS011;26316;55.976;37.140;2023-11-18T14:21:17;15.77;;;9.82;;
40609;SDS011;26316;55.976;37.140;2023-11-18T14:23:43;18.17;;;9.10;;
40609;SDS011;26316;55.976;37.140;2023-11-18T14:26:10;12.88;;;8.45;;
40609;SDS011;26316;55.976;37.140;2023-11-18T14:28:37;18.50;;;9.20;;
40609;SDS011;26316;55.976;37.140;2023-11-18T14:31:03;16.85;;;8.75;;
40609;SDS011;26316;55.976;37.140;2023-11-18T14:33:36;18.33;;;9.15;;
40609;SDS011;26316;55.976;37.140;2023-11-18T14:36:02;16.63;;;9.13;;
40609;SDS011;26316;55.976;37.140;2023-11-18T14:38:30;20.27;;;9.05;;
40609;SDS011;26316;55.976;37.140;2023-11-18T14:40:56;24.45;;;10.98;;
40609;SDS011;26316;55.976;37.140;2023-11-18T14:43:22;23.20;;;11.40;;